Time;durP1;ratioP1;P1;durP2;ratioP2;P2;SDS_P1;SDS_P2;PMS_P1;PMS_P2;Temp;Humidity;BMP_temperature;BMP_pressure;BME280_temperature;BME280_humidity;BME280_pressure;Samples;Min_cycle;Max_cycle;Signal;HPM_P1;HPM_P2
2020/12/29 00:00:12;;;;;;;;;;;;;;;22.04;33.98;97981.28;3092226;28;115867;-60
2020/12/29 00:01:48;;;;;;;;;;;;;;;22.03;34.10;97981.69;3097141;28;114972;-60
2020/12/29 00:03:20;;;;;;;;;;;;;;;22.03;34.44;97987.31;3095407;28;114847;-59
2020/12/29 00:04:52;;;;;;;;;;;;;;;22.05;34.07;97979.25;3088239;28;114480;-58
2020/12/29 00:06:23;;;;;;;;;;;;;;;22.05;34.50;97976.44;3094615;28;114217;-59
2020/12/29 00:07:54;;;;;;;;;;;;;;;22.04;34.37;97988.88;3086282;28;114043;-59
2020/12/29 00:09:27;;;;;;;;;;;;;;;22.03;34.30;97990.88;3096019;28;114735;-59
2020/12/29 00:10:58;;;;;;;;;;;;;;;22.02;34.27;97991.31;3087413;28;114027;-59
2020/12/29 00:12:30;;;;;;;;;;;;;;;22.02;34.23;97994.94;3083256;28;113809;-59
2020/12/29 00:14:02;;;;;;;;;;;;;;;22.00;34.21;97993.69;3091389;28;114598;-59
2020/12/29 00:15:33;;;;;;;;;;;;;;;22.00;34.32;97999.31;3101858;27;114287;-59
2020/12/29 00:17:05;;;;;;;;;;;;;;;21.99;34.15;97994.88;3106865;27;113966;-59
2020/12/29 00:18:36;;;;;;;;;;;;;;;21.98;34.89;97993.28;3096751;28;114165;-59
2020/12/29 00:20:08;;;;;;;;;;;;;;;21.96;34.66;98010.53;3092625;28;113935;-59
2020/12/29 00:21:40;;;;;;;;;;;;;;;21.94;34.77;98004.47;3095593;28;113910;-59
2020/12/29 00:23:12;;;;;;;;;;;;;;;21.94;34.75;98000.88;3094836;28;114312;-59
2020/12/29 00:24:43;;;;;;;;;;;;;;;21.90;34.67;98011.22;3088433;28;113892;-60
2020/12/29 00:26:15;;;;;;;;;;;;;;;21.89;34.91;98009.66;3091152;28;114401;-60
2020/12/29 00:27:46;;;;;;;;;;;;;;;21.88;35.01;98013.66;3097303;28;114363;-60
2020/12/29 00:29:18;;;;;;;;;;;;;;;21.85;35.05;98009.59;3095169;28;115135;-60
2020/12/29 00:30:49;;;;;;;;;;;;;;;21.84;34.98;98005.19;3095524;28;116540;-60
2020/12/29 00:32:20;;;;;;;;;;;;;;;21.82;35.02;97998.31;3095965;28;113995;-60
2020/12/29 00:33:54;;;;;;;;;;;;;;;21.80;35.01;97997.94;3096203;28;115148;-59
2020/12/29 00:35:26;;;;;;;;;;;;;;;21.78;35.14;98003.13;3094021;28;115167;-59
2020/12/29 00:37:00;;;;;;;;;;;;;;;21.76;35.05;97997.09;3095860;28;115072;-58
2020/12/29 00:38:31;;;;;;;;;;;;;;;21.74;35.25;97995.47;3085614;28;116442;-59
2020/12/29 00:40:04;;;;;;;;;;;;;;;21.71;35.46;98006.69;3085680;28;115100;-60
2020/12/29 00:41:35;;;;;;;;;;;;;;;21.70;35.21;98002.25;3094588;28;114110;-60
2020/12/29 00:43:07;;;;;;;;;;;;;;;21.68;34.94;98002.63;3094518;28;114731;-59
2020/12/29 00:44:44;;;;;;;;;;;;;;;21.66;35.44;98005.03;3093107;28;114331;-60
2020/12/29 00:46:19;;;;;;;;;;;;;;;21.63;35.64;98002.97;3100827;28;116489;-58
2020/12/29 00:47:50;;;;;;;;;;;;;;;21.62;35.56;98014.63;3094977;28;114376;-59
2020/12/29 00:49:22;;;;;;;;;;;;;;;21.60;35.69;98015.00;3085463;28;116018;-59
2020/12/29 00:50:53;;;;;;;;;;;;;;;21.58;35.96;98017.38;3095615;28;115700;-59
2020/12/29 00:52:24;;;;;;;;;;;;;;;21.56;36.18;98013.34;3084993;28;115857;-59
2020/12/29 00:53:55;;;;;;;;;;;;;;;21.55;36.14;98018.16;3095983;28;115809;-59
2020/12/29 00:55:27;;;;;;;;;;;;;;;21.54;36.40;98024.16;3085297;28;115681;-60
2020/12/29 00:56:59;;;;;;;;;;;;;;;21.51;36.60;98027.75;3094828;28;115789;-59
2020/12/29 00:58:30;;;;;;;;;;;;;;;21.49;37.18;98035.75;3096693;28;115781;-60
2020/12/29 01:00:03;;;;;;;;;;;;;;;21.47;37.08;98030.53;3094948;28;116221;-59
2020/12/29 01:01:35;;;;;;;;;;;;;;;21.46;37.20;98025.28;3095360;28;115781;-60
2020/12/29 01:03:06;;;;;;;;;;;;;;;21.45;37.23;98032.09;3088602;28;116064;-59
2020/12/29 01:04:38;;;;;;;;;;;;;;;21.43;36.90;98038.13;3085552;28;116277;-60
2020/12/29 01:06:10;;;;;;;;;;;;;;;21.40;37.55;98024.81;3094653;28;114476;-60
2020/12/29 01:07:41;;;;;;;;;;;;;;;21.40;37.28;98029.63;3096360;28;114355;-60
2020/12/29 01:09:13;;;;;;;;;;;;;;;21.38;37.09;98026.41;3094071;28;113833;-60
2020/12/29 01:10:44;;;;;;;;;;;;;;;21.36;37.46;98028.78;3096135;28;115592;-60
2020/12/29 01:12:16;;;;;;;;;;;;;;;21.34;37.83;98034.81;3096491;28;114427;-60
2020/12/29 01:13:47;;;;;;;;;;;;;;;21.32;37.73;98028.75;3096013;28;114794;-60
2020/12/29 01:15:18;;;;;;;;;;;;;;;21.30;38.06;98028.34;3091838;28;114222;-60
2020/12/29 01:16:50;;;;;;;;;;;;;;;21.29;37.89;98026.72;3083139;28;114197;-62
2020/12/29 01:18:21;;;;;;;;;;;;;;;21.26;37.99;98039.53;3083372;28;114218;-62
2020/12/29 01:19:54;;;;;;;;;;;;;;;21.23;37.83;98033.88;3094450;28;114845;-62
2020/12/29 01:21:25;;;;;;;;;;;;;;;21.21;38.06;98042.66;3084318;28;114123;-62
2020/12/29 01:22:56;;;;;;;;;;;;;;;21.20;37.87;98040.25;3105426;27;114545;-62
2020/12/29 01:24:28;;;;;;;;;;;;;;;21.17;38.23;98055.06;3094133;28;114431;-62
2020/12/29 01:25:59;;;;;;;;;;;;;;;21.14;38.04;98053.84;3096225;28;114638;-61
2020/12/29 01:27:34;;;;;;;;;;;;;;;21.12;38.31;98044.94;3093044;28;114169;-60
2020/12/29 01:29:05;;;;;;;;;;;;;;;21.10;38.62;98055.75;3088149;28;114542;-60
2020/12/29 01:30:37;;;;;;;;;;;;;;;21.09;38.48;98061.75;3098671;28;114211;-60
2020/12/29 01:32:08;;;;;;;;;;;;;;;21.06;38.28;98057.72;3086394;28;116251;-59
2020/12/29 01:33:40;;;;;;;;;;;;;;;21.06;38.31;98056.91;3095848;28;115239;-59
2020/12/29 01:35:12;;;;;;;;;;;;;;;21.03;38.52;98063.28;3094310;28;114752;-59
2020/12/29 01:36:43;;;;;;;;;;;;;;;20.98;38.64;98055.22;3096024;28;115866;-59
2020/12/29 01:38:14;;;;;;;;;;;;;;;20.96;38.28;98066.81;3094838;28;115766;-59
2020/12/29 01:39:47;;;;;;;;;;;;;;;20.96;38.26;98069.63;3088405;28;114109;-60
2020/12/29 01:41:19;;;;;;;;;;;;;;;20.93;38.02;98070.38;3085644;28;114161;-60
2020/12/29 01:42:50;;;;;;;;;;;;;;;20.91;38.50;98074.75;3085999;28;113957;-60
2020/12/29 01:44:21;;;;;;;;;;;;;;;20.89;38.45;98074.34;3085767;28;115244;-60
2020/12/29 01:45:57;;;;;;;;;;;;;;;20.86;38.40;98071.09;3093451;28;113995;-61
2020/12/29 01:47:28;;;;;;;;;;;;;;;20.84;38.57;98078.28;3090411;28;115299;-60
2020/12/29 01:49:00;;;;;;;;;;;;;;;20.83;38.25;98073.84;3085870;28;114585;-61
2020/12/29 01:50:31;;;;;;;;;;;;;;;20.82;38.20;98083.44;3092820;28;114267;-60
2020/12/29 01:52:02;;;;;;;;;;;;;;;20.80;38.57;98083.03;3099215;28;114721;-61
2020/12/29 01:53:39;;;;;;;;;;;;;;;20.78;38.52;98083.41;3084878;28;114965;-61
2020/12/29 01:55:11;;;;;;;;;;;;;;;20.76;38.44;98090.56;3092184;28;115731;-61
2020/12/29 01:56:42;;;;;;;;;;;;;;;20.74;38.10;98093.78;3088116;28;114668;-60
2020/12/29 01:58:14;;;;;;;;;;;;;;;20.74;38.16;98102.19;3090715;28;117546;-60
2020/12/29 01:59:46;;;;;;;;;;;;;;;20.73;37.90;98102.56;3094766;28;114731;-60
2020/12/29 02:01:18;;;;;;;;;;;;;;;20.70;38.23;98106.13;3094348;28;115549;-60
2020/12/29 02:02:49;;;;;;;;;;;;;;;20.68;38.55;98112.13;3095295;28;116037;-60
2020/12/29 02:04:21;;;;;;;;;;;;;;;20.65;38.75;98107.28;3094949;28;116007;-59
2020/12/29 02:05:52;;;;;;;;;;;;;;;20.63;38.67;98111.63;3083745;28;115801;-59
2020/12/29 02:07:24;;;;;;;;;;;;;;;20.61;38.63;98120.44;3085229;28;115851;-61
2020/12/29 02:08:55;;;;;;;;;;;;;;;20.59;38.85;98122.81;3094082;28;114963;-62
2020/12/29 02:10:27;;;;;;;;;;;;;;;20.57;38.58;98122.38;3095378;28;115772;-61
2020/12/29 02:11:58;;;;;;;;;;;;;;;20.56;38.54;98123.56;3096152;28;115786;-62
2020/12/29 02:13:38;;;;;;;;;;;;;;;20.54;38.29;98125.13;3098616;28;115037;-58
2020/12/29 02:15:09;;;;;;;;;;;;;;;20.53;38.16;98132.75;3094567;28;113881;-60
2020/12/29 02:16:42;;;;;;;;;;;;;;;20.54;38.35;98133.53;3095380;28;114075;-60
2020/12/29 02:18:14;;;;;;;;;;;;;;;20.50;38.55;98136.28;3096152;28;114210;-60
2020/12/29 02:19:45;;;;;;;;;;;;;;;20.48;38.38;98135.88;3094875;28;114960;-60
2020/12/29 02:21:17;;;;;;;;;;;;;;;20.46;38.41;98143.84;3096277;28;114262;-60
2020/12/29 02:22:48;;;;;;;;;;;;;;;20.43;38.47;98139.00;3095471;28;114101;-60
2020/12/29 02:24:20;;;;;;;;;;;;;;;20.43;38.80;98141.78;3095149;28;114124;-60
2020/12/29 02:25:51;;;;;;;;;;;;;;;20.41;38.72;98152.56;3095898;28;114530;-60
2020/12/29 02:27:23;;;;;;;;;;;;;;;20.39;38.42;98146.53;3102129;28;114243;-60
2020/12/29 02:29:02;;;;;;;;;;;;;;;20.37;38.55;98143.28;3095265;28;114010;-60
2020/12/29 02:30:33;;;;;;;;;;;;;;;20.35;38.53;98152.06;3093941;28;114876;-60
2020/12/29 02:32:05;;;;;;;;;;;;;;;20.33;38.71;98150.84;3096337;28;114031;-61
2020/12/29 02:33:36;;;;;;;;;;;;;;;20.30;38.48;98152.41;3107173;28;114377;-60
2020/12/29 02:35:08;;;;;;;;;;;;;;;20.31;38.58;98153.19;3098651;28;114256;-60
2020/12/29 02:36:39;;;;;;;;;;;;;;;20.29;38.70;98163.97;3094960;28;115145;-60
2020/12/29 02:38:10;;;;;;;;;;;;;;;20.26;38.44;98153.50;3093522;28;115329;-61
2020/12/29 02:39:42;;;;;;;;;;;;;;;20.25;38.89;98160.28;3114732;27;115145;-60
2020/12/29 02:41:15;;;;;;;;;;;;;;;20.24;38.85;98156.66;3103189;27;114058;-61
2020/12/29 02:42:47;;;;;;;;;;;;;;;20.21;38.85;98157.44;3092450;28;114485;-61
2020/12/29 02:44:19;;;;;;;;;;;;;;;20.21;38.75;98167.84;3084101;28;114167;-61
2020/12/29 02:45:50;;;;;;;;;;;;;;;20.18;38.65;98165.75;3085600;28;115079;-61
2020/12/29 02:47:22;;;;;;;;;;;;;;;20.17;38.64;98156.53;3096171;28;114940;-61
2020/12/29 02:48:53;;;;;;;;;;;;;;;20.15;38.82;98170.13;3095612;28;114304;-61
2020/12/29 02:50:29;;;;;;;;;;;;;;;20.15;38.56;98169.31;3093215;28;114503;-61
2020/12/29 02:52:01;;;;;;;;;;;;;;;20.13;38.66;98166.88;3093906;28;113975;-61
2020/12/29 02:53:36;;;;;;;;;;;;;;;20.10;39.10;98167.63;3116774;27;115016;-60
2020/12/29 02:55:08;;;;;;;;;;;;;;;20.09;39.11;98162.38;3090624;28;115006;-59
2020/12/29 02:56:43;;;;;;;;;;;;;;;20.06;38.69;98163.97;3088420;28;115187;-59
2020/12/29 02:58:14;;;;;;;;;;;;;;;20.05;38.92;98162.34;3106721;27;114724;-59
2020/12/29 02:59:46;;;;;;;;;;;;;;;20.05;38.74;98164.31;3095658;27;115787;-60
2020/12/29 03:01:17;;;;;;;;;;;;;;;20.01;38.88;98158.66;3096340;28;116760;-60
2020/12/29 03:02:48;;;;;;;;;;;;;;;20.01;38.83;98169.06;3087767;28;115764;-58
2020/12/29 03:04:20;;;;;;;;;;;;;;;19.99;38.84;98167.44;3084399;28;115757;-59
2020/12/29 03:05:51;;;;;;;;;;;;;;;19.97;39.00;98169.00;3096750;28;116552;-59
2020/12/29 03:07:22;;;;;;;;;;;;;;;19.96;39.04;98179.41;3095806;28;116220;-59
2020/12/29 03:08:54;;;;;;;;;;;;;;;19.94;39.54;98169.75;3096984;28;115718;-59
2020/12/29 03:10:25;;;;;;;;;;;;;;;19.92;39.25;98172.91;3092670;28;114724;-59
2020/12/29 03:11:57;;;;;;;;;;;;;;;19.90;39.53;98166.03;3097857;28;114738;-59
2020/12/29 03:13:28;;;;;;;;;;;;;;;19.89;39.54;98189.66;3097366;28;116372;-60
2020/12/29 03:14:59;;;;;;;;;;;;;;;19.87;39.39;98176.03;3095271;28;118071;-59
2020/12/29 03:16:33;;;;;;;;;;;;;;;19.86;39.51;98181.97;3088958;28;115808;-60
2020/12/29 03:18:24;;;;;;;;;;;;;;;19.83;39.48;98177.13;3084501;28;114666;-60
2020/12/29 03:19:55;;;;;;;;;;;;;;;19.83;39.37;98172.34;3100809;28;115886;-59
2020/12/29 03:21:26;;;;;;;;;;;;;;;19.83;39.60;98186.34;3098800;28;114589;-59
2020/12/29 03:22:58;;;;;;;;;;;;;;;19.79;39.20;98185.47;3087352;28;113944;-58
2020/12/29 03:24:29;;;;;;;;;;;;;;;19.79;39.23;98188.28;3093618;28;114616;-59
2020/12/29 03:26:00;;;;;;;;;;;;;;;19.78;39.23;98189.44;3096110;28;113977;-58
2020/12/29 03:27:32;;;;;;;;;;;;;;;19.77;39.55;98193.44;3097546;28;114070;-59
2020/12/29 03:29:03;;;;;;;;;;;;;;;19.75;39.61;98195.81;3093488;28;113886;-59
2020/12/29 03:30:34;;;;;;;;;;;;;;;19.74;39.58;98193.38;3096138;28;114020;-59
2020/12/29 03:32:06;;;;;;;;;;;;;;;19.73;39.54;98198.16;3096580;28;114660;-59
2020/12/29 03:33:37;;;;;;;;;;;;;;;19.71;39.78;98200.53;3084223;28;114288;-59
2020/12/29 03:35:09;;;;;;;;;;;;;;;19.69;39.43;98196.47;3084693;28;113747;-59
2020/12/29 03:36:43;;;;;;;;;;;;;;;19.66;39.64;98200.00;3084570;28;114509;-59
2020/12/29 03:38:14;;;;;;;;;;;;;;;19.65;39.55;98207.59;3093653;28;114535;-59
2020/12/29 03:39:46;;;;;;;;;;;;;;;19.66;39.42;98205.63;3097140;28;114051;-60
2020/12/29 03:41:17;;;;;;;;;;;;;;;19.64;39.33;98199.56;3101985;28;113949;-59
2020/12/29 03:42:48;;;;;;;;;;;;;;;19.64;39.49;98205.97;3092248;28;115411;-59
2020/12/29 03:44:19;;;;;;;;;;;;;;;19.61;39.28;98205.91;3085916;28;115239;-59
2020/12/29 03:45:51;;;;;;;;;;;;;;;19.59;39.44;98203.47;3085332;28;117893;-58
2020/12/29 03:47:22;;;;;;;;;;;;;;;19.57;39.26;98207.81;3096987;28;115060;-59
2020/12/29 03:48:54;;;;;;;;;;;;;;;19.57;39.31;98211.44;3084545;28;114353;-59
2020/12/29 03:50:42;;;;;;;;;;;;;;;19.57;39.30;98205.84;3093298;28;114436;-60
2020/12/29 03:52:22;;;;;;;;;;;;;;;19.58;39.68;98206.66;3092148;28;116117;-60
2020/12/29 03:53:54;;;;;;;;;;;;;;;19.54;39.33;98210.19;3089304;28;115148;-60
2020/12/29 03:55:26;;;;;;;;;;;;;;;19.53;39.44;98204.97;3095378;28;115564;-59
2020/12/29 03:56:58;;;;;;;;;;;;;;;19.51;39.47;98207.31;3096746;28;114914;-59
2020/12/29 03:58:29;;;;;;;;;;;;;;;19.49;39.45;98209.66;3094505;28;114186;-59
2020/12/29 04:00:00;;;;;;;;;;;;;;;19.49;39.33;98204.06;3088123;28;115069;-59
2020/12/29 04:01:31;;;;;;;;;;;;;;;19.47;39.24;98206.44;3095442;28;115057;-58
2020/12/29 04:03:04;;;;;;;;;;;;;;;19.45;39.31;98205.97;3100709;28;115269;-59
2020/12/29 04:04:36;;;;;;;;;;;;;;;19.44;39.63;98209.97;3091016;28;116443;-60
2020/12/29 04:06:07;;;;;;;;;;;;;;;19.42;39.63;98204.69;3096496;28;115437;-59
2020/12/29 04:07:39;;;;;;;;;;;;;;;19.42;39.53;98213.09;3089965;28;114744;-59
2020/12/29 04:09:11;;;;;;;;;;;;;;;19.41;39.22;98211.47;3100167;27;114961;-59
2020/12/29 04:10:42;;;;;;;;;;;;;;;19.39;39.47;98211.03;3108895;27;114594;-60
2020/12/29 04:12:13;;;;;;;;;;;;;;;19.37;39.22;98206.97;3100681;28;116078;-59
2020/12/29 04:13:44;;;;;;;;;;;;;;;19.34;39.49;98205.72;3096486;28;116032;-59
2020/12/29 04:15:16;;;;;;;;;;;;;;;19.35;39.34;98206.53;3096102;28;115717;-58
2020/12/29 04:16:47;;;;;;;;;;;;;;;19.32;39.31;98216.47;3096101;28;115804;-59
2020/12/29 04:18:18;;;;;;;;;;;;;;;19.32;39.36;98207.25;3096520;28;114674;-59
2020/12/29 04:19:51;;;;;;;;;;;;;;;19.29;39.22;98210.81;3096348;28;117195;-59
2020/12/29 04:21:23;;;;;;;;;;;;;;;19.29;39.32;98214.41;3097823;28;114790;-59
2020/12/29 04:22:54;;;;;;;;;;;;;;;19.30;39.30;98218.03;3097003;28;115809;-60
2020/12/29 04:24:25;;;;;;;;;;;;;;;19.28;39.23;98220.38;3097099;28;115618;-61
2020/12/29 04:25:57;;;;;;;;;;;;;;;19.27;39.34;98224.34;3095733;28;114429;-59
2020/12/29 04:27:29;;;;;;;;;;;;;;;19.28;39.29;98223.97;3094339;28;114765;-59
2020/12/29 04:29:00;;;;;;;;;;;;;;;19.25;39.29;98221.94;3093479;28;113980;-59
2020/12/29 04:30:31;;;;;;;;;;;;;;;19.22;39.28;98227.41;3083381;28;114901;-58
2020/12/29 04:32:03;;;;;;;;;;;;;;;19.22;39.20;98227.41;3094539;28;114790;-59
2020/12/29 04:33:34;;;;;;;;;;;;;;;19.20;39.20;98229.78;3094881;28;115250;-58
2020/12/29 04:35:06;;;;;;;;;;;;;;;19.20;39.12;98232.59;3092825;28;115003;-59
2020/12/29 04:36:38;;;;;;;;;;;;;;;19.17;39.20;98234.13;3093854;28;114361;-58
2020/12/29 04:38:09;;;;;;;;;;;;;;;19.14;39.38;98232.06;3093028;28;113928;-59
2020/12/29 04:39:41;;;;;;;;;;;;;;;19.13;39.37;98235.22;3093287;28;114486;-59
2020/12/29 04:41:13;;;;;;;;;;;;;;;19.10;39.39;98240.38;3082745;28;113842;-59
2020/12/29 04:42:44;;;;;;;;;;;;;;;19.09;39.36;98251.94;3085049;28;114633;-60
2020/12/29 04:44:16;;;;;;;;;;;;;;;19.09;39.43;98243.53;3093758;28;114235;-60
2020/12/29 04:45:48;;;;;;;;;;;;;;;19.07;39.47;98238.31;3093093;28;113972;-59
2020/12/29 04:47:23;;;;;;;;;;;;;;;19.06;39.35;98247.06;3099634;28;114540;-60
2020/12/29 04:48:55;;;;;;;;;;;;;;;19.07;39.35;98249.50;3093957;28;114636;-59
2020/12/29 04:50:26;;;;;;;;;;;;;;;19.08;39.26;98250.28;3095842;28;114972;-59
2020/12/29 04:51:57;;;;;;;;;;;;;;;19.12;39.29;98253.19;3092973;28;114740;-60
2020/12/29 04:53:30;;;;;;;;;;;;;;;19.12;39.17;98251.22;3092671;28;115360;-59
2020/12/29 04:55:02;;;;;;;;;;;;;;;19.15;39.21;98244.06;3085674;28;114963;-60
2020/12/29 04:56:34;;;;;;;;;;;;;;;19.17;39.22;98245.31;3096079;28;113989;-60
2020/12/29 04:58:05;;;;;;;;;;;;;;;19.19;39.76;98244.97;3090149;28;115070;-61
2020/12/29 04:59:37;;;;;;;;;;;;;;;19.23;39.65;98237.44;3088678;28;114239;-61
2020/12/29 05:01:08;;;;;;;;;;;;;;;19.25;39.31;98238.72;3096970;28;114127;-61
2020/12/29 05:02:40;;;;;;;;;;;;;;;19.27;39.47;98243.94;3089116;28;115396;-61
2020/12/29 05:04:13;;;;;;;;;;;;;;;19.30;39.67;98237.63;3086480;28;115319;-61
2020/12/29 05:05:44;;;;;;;;;;;;;;;19.34;39.55;98241.31;3092899;28;114344;-59
2020/12/29 05:07:15;;;;;;;;;;;;;;;19.39;39.67;98249.44;3090831;28;114147;-60
2020/12/29 05:08:47;;;;;;;;;;;;;;;19.41;39.93;98245.06;3092419;28;115389;-60
2020/12/29 05:10:18;;;;;;;;;;;;;;;19.45;39.94;98250.78;3089694;28;114658;-60
2020/12/29 05:11:50;;;;;;;;;;;;;;;19.50;40.09;98256.91;3095475;28;114367;-60
2020/12/29 05:13:21;;;;;;;;;;;;;;;19.54;39.59;98262.56;3093128;28;115540;-60
2020/12/29 05:14:52;;;;;;;;;;;;;;;19.57;39.65;98256.25;3083353;28;115676;-60
2020/12/29 05:16:24;;;;;;;;;;;;;;;19.61;39.88;98259.94;3084332;28;116085;-60
2020/12/29 05:17:55;;;;;;;;;;;;;;;19.65;39.54;98262.81;3090302;28;117308;-60
2020/12/29 05:19:26;;;;;;;;;;;;;;;19.70;39.46;98279.31;3101339;28;114552;-60
2020/12/29 05:20:58;;;;;;;;;;;;;;;19.73;39.59;98264.56;3100487;28;115370;-60
2020/12/29 05:22:29;;;;;;;;;;;;;;;19.76;39.52;98275.84;3095048;28;115631;-60
2020/12/29 05:24:14;;;;;;;;;;;;;;;19.80;39.51;98275.94;3094369;28;114941;-60
2020/12/29 05:25:46;;;;;;;;;;;;;;;19.83;39.13;98275.19;3093401;28;116140;-60
2020/12/29 05:27:19;;;;;;;;;;;;;;;19.86;39.30;98278.06;3096549;28;114718;-60
2020/12/29 05:28:50;;;;;;;;;;;;;;;19.90;39.55;98284.56;3105562;28;114788;-60
2020/12/29 05:30:22;;;;;;;;;;;;;;;19.93;39.55;98283.03;3097533;28;114604;-60
2020/12/29 05:31:53;;;;;;;;;;;;;;;19.94;39.47;98287.44;3083317;28;114394;-60
2020/12/29 05:33:26;;;;;;;;;;;;;;;19.99;39.69;98282.34;3083518;28;114138;-60
2020/12/29 05:34:58;;;;;;;;;;;;;;;20.02;39.03;98282.78;3091564;28;114101;-60
2020/12/29 05:36:38;;;;;;;;;;;;;;;20.05;39.07;98284.84;3092857;28;114646;-60
2020/12/29 05:38:10;;;;;;;;;;;;;;;20.08;38.92;98284.13;3094277;28;114448;-60
2020/12/29 05:39:42;;;;;;;;;;;;;;;20.11;38.93;98288.97;3091712;28;114576;-60
2020/12/29 05:41:13;;;;;;;;;;;;;;;20.13;38.68;98279.00;3096083;28;114097;-60
2020/12/29 05:42:48;;;;;;;;;;;;;;;20.16;38.72;98277.47;3092085;28;114784;-60
2020/12/29 05:44:28;;;;;;;;;;;;;;;20.18;38.85;98273.09;3094472;28;113789;-60
2020/12/29 05:46:00;;;;;;;;;;;;;;;20.21;38.71;98277.16;3083248;28;114981;-60
2020/12/29 05:47:32;;;;;;;;;;;;;;;20.24;39.71;98288.44;3093616;28;114725;-62
2020/12/29 05:49:04;;;;;;;;;;;;;;;20.26;39.25;98288.09;3092469;28;114395;-61
2020/12/29 05:50:37;;;;;;;;;;;;;;;20.29;38.96;98293.75;3091291;28;114218;-61
2020/12/29 05:52:08;;;;;;;;;;;;;;;20.32;38.84;98295.03;3089810;28;114345;-61
2020/12/29 05:53:41;;;;;;;;;;;;;;;20.34;38.77;98295.47;3086159;28;114347;-61
2020/12/29 05:55:13;;;;;;;;;;;;;;;20.36;38.67;98287.47;3089552;28;114920;-59
2020/12/29 05:56:45;;;;;;;;;;;;;;;20.38;38.84;98287.94;3085504;28;113782;-59
2020/12/29 05:58:19;;;;;;;;;;;;;;;20.42;38.59;98289.63;3085643;28;114195;-59
2020/12/29 05:59:50;;;;;;;;;;;;;;;20.43;38.39;98290.44;3092146;28;114623;-59
2020/12/29 06:01:22;;;;;;;;;;;;;;;20.46;38.28;98295.28;3094977;28;114489;-60
2020/12/29 06:02:57;;;;;;;;;;;;;;;20.49;38.50;98294.53;3096398;28;114608;-60
2020/12/29 06:04:30;;;;;;;;;;;;;;;20.51;38.44;98302.59;3093430;28;116401;-60
2020/12/29 06:06:03;;;;;;;;;;;;;;;20.53;38.28;98303.03;3091778;28;114159;-60
2020/12/29 06:07:35;;;;;;;;;;;;;;;20.55;38.31;98311.88;3094729;28;114787;-60
2020/12/29 06:09:07;;;;;;;;;;;;;;;20.57;38.13;98310.34;3091966;28;114210;-60
2020/12/29 06:10:42;;;;;;;;;;;;;;;20.58;38.02;98314.75;3095719;28;115266;-60
2020/12/29 06:12:19;;;;;;;;;;;;;;;20.60;37.98;98315.19;3093971;28;115018;-60
2020/12/29 06:13:51;;;;;;;;;;;;;;;20.64;37.88;98323.66;3095513;28;115524;-60
2020/12/29 06:15:23;;;;;;;;;;;;;;;20.66;38.07;98321.31;3092574;28;114998;-60
2020/12/29 06:16:55;;;;;;;;;;;;;;;20.68;37.79;98318.94;3098208;28;117294;-60
2020/12/29 06:18:36;;;;;;;;;;;;;;;20.69;37.84;98312.94;3092943;28;114564;-60
2020/12/29 06:20:15;;;;;;;;;;;;;;;20.70;37.62;98325.81;3095037;28;114787;-60
2020/12/29 06:22:05;;;;;;;;;;;;;;;20.73;37.67;98324.22;3093363;28;114073;-60
2020/12/29 06:23:45;;;;;;;;;;;;;;;20.75;37.53;98321.88;3092774;28;115156;-61
2020/12/29 06:25:18;;;;;;;;;;;;;;;20.77;37.57;98323.13;3087570;28;114604;-61
2020/12/29 06:26:52;;;;;;;;;;;;;;;20.79;37.71;98339.59;3093956;28;115639;-61
2020/12/29 06:28:27;;;;;;;;;;;;;;;20.78;37.47;98332.34;3094831;28;115282;-60
2020/12/29 06:29:59;;;;;;;;;;;;;;;20.81;37.69;98329.59;3092647;28;114379;-60
2020/12/29 06:31:36;;;;;;;;;;;;;;;20.85;38.36;98338.88;3092760;28;116471;-60
2020/12/29 06:33:23;;;;;;;;;;;;;;;20.86;38.01;98345.31;3090775;28;114658;-59
2020/12/29 06:35:00;;;;;;;;;;;;;;;20.86;37.75;98340.50;3092318;28;115105;-61
2020/12/29 06:37:09;;;;;;;;;;;;;;;20.92;37.46;98338.22;3093206;28;115491;-60
2020/12/29 06:38:47;;;;;;;;;;;;;;;20.92;37.43;98337.41;3099483;28;115851;-59
2020/12/29 06:40:20;;;;;;;;;;;;;;;20.93;37.47;98334.22;3095806;28;114618;-58
2020/12/29 06:42:07;;;;;;;;;;;;;;;20.95;37.49;98336.63;3092853;28;114340;-58
2020/12/29 06:43:52;;;;;;;;;;;;;;;20.96;37.26;98339.09;3093136;28;113866;-59
2020/12/29 06:45:24;;;;;;;;;;;;;;;20.98;37.39;98339.53;3095863;28;114293;-59
2020/12/29 06:46:56;;;;;;;;;;;;;;;21.00;37.39;98342.75;3097028;28;114133;-59
2020/12/29 06:48:29;;;;;;;;;;;;;;;21.01;37.14;98344.38;3096618;28;114443;-59
2020/12/29 06:50:01;;;;;;;;;;;;;;;21.03;37.27;98342.00;3094445;28;114297;-59
2020/12/29 06:51:32;;;;;;;;;;;;;;;21.04;37.34;98351.22;3094795;28;114607;-59
2020/12/29 06:53:04;;;;;;;;;;;;;;;21.05;37.28;98345.25;3096745;28;114097;-59
2020/12/29 06:55:08;;;;;;;;;;;;;;;21.07;37.20;98348.50;3096292;28;114346;-59
2020/12/29 06:56:54;;;;;;;;;;;;;;;21.08;37.16;98357.72;3071995;28;114454;-59
2020/12/29 06:58:30;;;;;;;;;;;;;;;21.11;37.19;98359.78;3085958;28;113756;-59
2020/12/29 07:00:14;;;;;;;;;;;;;;;21.12;37.29;98365.00;3091864;28;114544;-60
2020/12/29 07:01:49;;;;;;;;;;;;;;;21.13;37.09;98372.28;3090461;28;114051;-60
2020/12/29 07:03:30;;;;;;;;;;;;;;;21.14;37.27;98373.09;3092639;28;115428;-59
2020/12/29 07:05:11;;;;;;;;;;;;;;;21.16;37.02;98381.97;3091843;28;114458;-59
2020/12/29 07:06:42;;;;;;;;;;;;;;;21.16;37.23;98388.41;3097604;28;115714;-59
2020/12/29 07:08:14;;;;;;;;;;;;;;;21.17;37.17;98392.81;3090591;28;114217;-59
2020/12/29 07:09:45;;;;;;;;;;;;;;;21.18;36.97;98396.44;3088026;28;114076;-59
2020/12/29 07:11:22;;;;;;;;;;;;;;;21.20;37.29;98399.69;3097258;28;115327;-59
2020/12/29 07:12:53;;;;;;;;;;;;;;;21.21;37.46;98409.75;3104773;28;114415;-59
2020/12/29 07:14:29;;;;;;;;;;;;;;;21.22;37.48;98405.72;3097361;28;114896;-59
2020/12/29 07:16:11;;;;;;;;;;;;;;;21.24;37.56;98408.97;3091289;28;114351;-60
2020/12/29 07:17:55;;;;;;;;;;;;;;;21.27;37.35;98413.84;3093237;28;115154;-60
2020/12/29 07:19:30;;;;;;;;;;;;;;;21.27;37.17;98406.22;3087123;28;114532;-60
2020/12/29 07:21:01;;;;;;;;;;;;;;;21.29;37.12;98412.31;3096467;28;114123;-59
2020/12/29 07:22:33;;;;;;;;;;;;;;;21.30;37.36;98405.47;3088509;28;113892;-60
2020/12/29 07:24:05;;;;;;;;;;;;;;;21.33;37.43;98415.16;3099094;28;115454;-59
2020/12/29 07:25:36;;;;;;;;;;;;;;;21.33;37.25;98408.72;3087930;28;117727;-60
2020/12/29 07:27:10;;;;;;;;;;;;;;;21.33;37.21;98415.16;3094955;28;116267;-59
2020/12/29 07:28:42;;;;;;;;;;;;;;;21.35;37.32;98420.41;3096057;28;114709;-60
2020/12/29 07:30:15;;;;;;;;;;;;;;;21.36;37.39;98417.22;3090799;28;115387;-59
2020/12/29 07:31:46;;;;;;;;;;;;;;;21.40;37.44;98420.88;3091003;28;115351;-60
2020/12/29 07:33:22;;;;;;;;;;;;;;;21.41;37.45;98427.31;3094975;28;114473;-60
2020/12/29 07:34:54;;;;;;;;;;;;;;;21.41;37.16;98427.31;3087370;28;115751;-60
2020/12/29 07:36:25;;;;;;;;;;;;;;;21.41;37.54;98433.75;3087695;28;115017;-60
2020/12/29 07:37:58;;;;;;;;;;;;;;;21.44;37.29;98435.81;3086978;28;114520;-64
2020/12/29 07:39:29;;;;;;;;;;;;;;;21.44;37.19;98440.63;3086095;28;115798;-63
2020/12/29 07:41:02;;;;;;;;;;;;;;;21.46;37.26;98441.06;3086133;28;115834;-61
2020/12/29 07:42:35;;;;;;;;;;;;;;;21.48;37.23;98452.75;3093468;28;115870;-61
2020/12/29 07:44:06;;;;;;;;;;;;;;;21.47;37.04;98453.91;3096201;28;116247;-60
2020/12/29 07:45:38;;;;;;;;;;;;;;;21.48;37.28;98447.94;3099621;28;115985;-61
2020/12/29 07:47:10;;;;;;;;;;;;;;;21.49;36.98;98457.16;3094108;28;113959;-61
2020/12/29 07:48:41;;;;;;;;;;;;;;;21.49;37.11;98455.16;3095422;28;114242;-60
2020/12/29 07:50:13;;;;;;;;;;;;;;;21.51;36.94;98455.59;3095457;28;114420;-61
2020/12/29 07:51:47;;;;;;;;;;;;;;;21.52;36.99;98459.22;3085675;28;114507;-61
2020/12/29 07:53:23;;;;;;;;;;;;;;;21.52;37.08;98453.59;3095860;28;114809;-61
2020/12/29 07:55:07;;;;;;;;;;;;;;;21.51;36.97;98447.16;3095627;28;114216;-61
2020/12/29 07:56:43;;;;;;;;;;;;;;;21.51;37.01;98451.97;3092213;28;114623;-60